Watertown Regional Airport
KATY : now visible

Airfield :











YOU CAN JOIN US ON...

 
LOGIN :

Register | Disclaimer

   EN    FR    IT 

 









Legend :    VFR   Marginal VFR   IFR   Intensive IFR   Very Intensive IFR
Visi :
Ceiling :
>= 8 km
>= 3000ft
5 to 8 km
1000 to 3000 ft
1500m to 5 km
500 to 1000 ft
800 to 1500m
200 to 500 ft
< 800m
< 200 ft
Symbols :   Thunderstorms  Fog  Heavy snow  Heavy precipitations  Wind > 20 kt






- Airport Elevation : 1749 ft
- IATA code : ATY


KATY - Watertown Regional

CURRENT METAR :
  • 011553Z AUTO 15007KT 10SM SCT060 OVC085 M16/M19 A3005 RMK AO2 SLP221 T11611189

EXPIRED METARs :
  • 011453Z AUTO 16009KT 10SM OVC100 M18/M21 A3005 RMK AO2 SLP223 T11831206 51001
  • 011353Z AUTO 16008KT 10SM BKN090 M19/M22 A3004 RMK AO2 SLP220 T11941217

TAF KATY
Valid from the 01 at 12:00 until the 02 at 12:00 UTC


011127Z 0112/0212 16005KT P6SM SKC
FM011700 23007KT P6SM FEW250
FM021000 33009KT P6SM BKN035
KZMP FIR / North America



MET'MAP, your aeronautical weather chart ! - Copyright ORBIFLY December 2007 - Disclaimer

ORBIFLY MET'MAP TEAM :

Programming & Development : Alexandra Zaïnal
Original concept : Baudouin d'Aumeries
Technical & hardware support : Manuel Goepfert
Assistance : Marc-Olivier Méhu




SOURCES & CREDITS :

   NOAA       Earth
Advisory